createdAt,value
2022-08-19T00:02:03.179Z,20.60
2022-08-19T00:04:32.646Z,20.50
2022-08-19T00:07:01.370Z,20.50
2022-08-19T00:09:29.959Z,20.40
2022-08-19T00:11:58.969Z,20.50
2022-08-19T00:14:27.849Z,20.50
2022-08-19T00:16:56.960Z,20.60
2022-08-19T00:19:27.059Z,20.60
2022-08-19T00:21:57.366Z,20.60
2022-08-19T00:24:25.888Z,20.70
2022-08-19T00:26:54.560Z,20.60
2022-08-19T00:29:23.359Z,20.60
2022-08-19T00:31:54.048Z,20.60
2022-08-19T00:34:22.899Z,20.50
2022-08-19T00:36:52.789Z,20.40
2022-08-19T00:39:21.089Z,20.40
2022-08-19T00:41:50.821Z,20.30
2022-08-19T00:44:22.631Z,20.30
2022-08-19T00:46:58.049Z,20.30
2022-08-19T00:49:29.861Z,20.40
2022-08-19T00:52:01.628Z,20.40
2022-08-19T00:54:32.542Z,20.40
2022-08-19T00:57:01.601Z,20.40
2022-08-19T00:59:56.105Z,20.40
2022-08-19T01:02:20.569Z,20.40
2022-08-19T01:04:49.409Z,20.40
2022-08-19T01:07:19.864Z,20.40
2022-08-19T01:09:48.861Z,20.30
2022-08-19T01:12:18.199Z,20.30
2022-08-19T01:14:47.340Z,20.30
2022-08-19T01:17:16.499Z,20.20
2022-08-19T01:19:45.462Z,20.20
2022-08-19T01:22:16.930Z,20.20
2022-08-19T01:24:49.709Z,20.20
2022-08-19T01:27:18.890Z,20.30
2022-08-19T01:29:49.056Z,20.30
2022-08-19T01:32:32.084Z,20.30
2022-08-19T01:35:03.932Z,20.30
2022-08-19T01:37:32.749Z,20.30
2022-08-19T01:40:04.377Z,20.30
2022-08-19T01:42:36.329Z,20.20
2022-08-19T01:45:05.129Z,20.30
2022-08-19T01:47:33.569Z,20.30
2022-08-19T01:50:02.061Z,20.20
2022-08-19T01:52:30.320Z,20.20
2022-08-19T01:54:58.948Z,20.20
2022-08-19T01:57:28.759Z,20.20
2022-08-19T01:59:57.899Z,20.20
2022-08-19T02:02:26.290Z,20.10
2022-08-19T02:04:55.580Z,20.20
2022-08-19T02:07:23.837Z,20.10
2022-08-19T02:09:52.199Z,20.20
2022-08-19T02:12:20.519Z,20.20
2022-08-19T02:14:50.259Z,20.20
2022-08-19T02:17:19.390Z,20.20
2022-08-19T02:19:47.679Z,20.20
2022-08-19T02:22:16.051Z,20.10
2022-08-19T02:24:44.419Z,20.20
2022-08-19T02:27:12.789Z,20.20
2022-08-19T02:29:42.039Z,20.20
2022-08-19T02:32:11.782Z,20.20
2022-08-19T02:34:40.199Z,20.20
2022-08-19T02:37:28.463Z,20.20
2022-08-19T02:39:55.936Z,20.20
2022-08-19T02:42:24.421Z,20.20
2022-08-19T02:44:53.380Z,20.20
2022-08-19T02:47:23.241Z,20.20
2022-08-19T02:49:51.840Z,20.20
2022-08-19T02:52:20.149Z,20.20
2022-08-19T02:54:48.479Z,20.20
2022-08-19T02:57:18.750Z,20.20
2022-08-19T02:59:47.032Z,20.20
2022-08-19T03:02:15.370Z,20.30
2022-08-19T03:04:45.060Z,20.30
2022-08-19T03:07:16.039Z,20.30
2022-08-19T03:09:44.740Z,20.40
2022-08-19T03:12:13.209Z,20.40
2022-08-19T03:14:41.590Z,20.40
2022-08-19T03:17:09.884Z,20.40
2022-08-19T03:19:39.389Z,20.40
2022-08-19T03:22:09.180Z,20.40
2022-08-19T03:24:37.790Z,20.40
2022-08-19T03:27:06.239Z,20.30
2022-08-19T03:29:43.002Z,20.40
2022-08-19T03:32:24.439Z,20.40
2022-08-19T03:35:00.359Z,20.40
2022-08-19T03:37:30.130Z,20.50
2022-08-19T03:39:58.434Z,20.50
2022-08-19T03:42:32.062Z,20.50
2022-08-19T03:45:01.710Z,20.50
2022-08-19T03:47:29.989Z,20.60
2022-08-19T03:49:58.249Z,20.60
2022-08-19T03:52:26.540Z,20.60
2022-08-19T03:54:56.319Z,20.60
2022-08-19T03:57:31.791Z,20.60
2022-08-19T04:00:12.895Z,20.50
2022-08-19T04:02:43.004Z,20.40
2022-08-19T04:05:28.771Z,20.50
2022-08-19T04:07:58.170Z,20.30
2022-08-19T04:10:27.890Z,20.40
2022-08-19T04:12:56.221Z,20.40
2022-08-19T04:15:24.509Z,20.40
2022-08-19T04:17:52.819Z,20.30
2022-08-19T04:20:21.179Z,20.30
2022-08-19T04:22:49.492Z,20.30
2022-08-19T04:25:17.779Z,20.40
2022-08-19T04:27:47.536Z,20.30
2022-08-19T04:30:16.399Z,20.30
2022-08-19T04:32:45.859Z,20.30
2022-08-19T04:35:16.805Z,20.20
2022-08-19T04:37:46.948Z,20.20
2022-08-19T04:40:32.739Z,20.20
2022-08-19T04:43:03.162Z,20.20
2022-08-19T04:45:39.589Z,20.20
2022-08-19T04:48:27.246Z,20.20
2022-08-19T04:50:58.726Z,20.20
2022-08-19T04:53:29.899Z,20.30
2022-08-19T04:56:08.650Z,20.30
2022-08-19T04:58:39.059Z,20.30
2022-08-19T05:01:07.442Z,20.20
2022-08-19T05:03:36.100Z,20.20
2022-08-19T05:06:08.499Z,20.30
2022-08-19T05:08:38.020Z,20.30
2022-08-19T05:11:10.224Z,20.30
2022-08-19T05:13:44.166Z,20.30
2022-08-19T05:16:14.207Z,20.30
2022-08-19T05:19:00.048Z,20.30
2022-08-19T05:21:45.808Z,20.30
2022-08-19T05:24:15.576Z,20.30
2022-08-19T05:26:47.636Z,20.30
2022-08-19T05:29:18.832Z,20.30
2022-08-19T05:31:47.657Z,20.30
2022-08-19T05:34:18.242Z,20.30
2022-08-19T05:36:49.205Z,20.40
2022-08-19T05:39:18.499Z,20.40
2022-08-19T05:41:47.458Z,20.30
2022-08-19T05:44:16.480Z,20.30
2022-08-19T05:46:48.151Z,20.30
2022-08-19T05:49:17.549Z,20.40
2022-08-19T05:51:46.299Z,20.30
2022-08-19T05:54:15.131Z,20.40
2022-08-19T05:56:43.970Z,20.30
2022-08-19T05:59:12.759Z,20.30
2022-08-19T06:01:41.748Z,20.30
2022-08-19T06:04:11.609Z,20.30
2022-08-19T06:06:40.013Z,20.30
2022-08-19T06:09:09.405Z,20.30
2022-08-19T06:11:39.232Z,20.30
2022-08-19T06:14:09.694Z,20.40
2022-08-19T06:16:45.644Z,20.40
2022-08-19T06:19:17.102Z,20.40
2022-08-19T06:21:47.483Z,20.50
2022-08-19T06:24:17.092Z,20.50
2022-08-19T06:29:23.696Z,20.50
2022-08-19T06:31:53.533Z,20.40
2022-08-19T06:34:23.373Z,20.50
2022-08-19T06:36:53.135Z,20.50
2022-08-19T06:39:23.254Z,20.40
2022-08-19T06:41:55.575Z,20.50
2022-08-19T06:44:28.003Z,20.40
2022-08-19T06:46:57.754Z,20.40
2022-08-19T06:49:28.895Z,20.40
2022-08-19T06:51:57.884Z,20.50
2022-08-19T06:54:30.797Z,20.50
2022-08-19T06:57:00.104Z,20.50
2022-08-19T06:59:29.388Z,20.50
2022-08-19T07:01:59.966Z,20.40
2022-08-19T07:04:31.482Z,20.40
2022-08-19T07:07:00.582Z,20.30
2022-08-19T07:09:51.854Z,20.30
2022-08-19T07:12:29.626Z,20.30
2022-08-19T07:14:59.366Z,20.30
2022-08-19T07:17:28.085Z,20.30
2022-08-19T07:19:58.043Z,20.30
2022-08-19T07:22:34.990Z,20.30
2022-08-19T07:25:05.032Z,20.20
2022-08-19T07:27:33.876Z,20.20
2022-08-19T07:30:02.492Z,20.20
2022-08-19T07:32:32.640Z,20.30
2022-08-19T07:35:04.475Z,20.30
2022-08-19T07:37:33.579Z,20.30
2022-08-19T07:40:02.360Z,20.40
2022-08-19T07:42:31.483Z,20.40
2022-08-19T07:45:01.003Z,20.30
2022-08-19T07:47:50.288Z,20.40
2022-08-19T07:50:21.798Z,20.50
2022-08-19T07:52:50.991Z,20.60
2022-08-19T07:55:41.866Z,20.50
2022-08-19T07:58:09.690Z,20.40
2022-08-19T08:00:39.305Z,20.30
2022-08-19T08:03:07.674Z,20.30
2022-08-19T08:05:55.221Z,20.40
2022-08-19T08:08:37.361Z,20.30
2022-08-19T08:11:13.062Z,20.40
2022-08-19T08:13:44.134Z,20.40
2022-08-19T08:16:14.357Z,20.40
2022-08-19T08:18:50.335Z,20.50
2022-08-19T08:21:20.802Z,20.50
2022-08-19T08:23:49.194Z,20.30
2022-08-19T08:26:19.376Z,20.40
2022-08-19T08:28:49.736Z,20.30
2022-08-19T08:31:19.754Z,20.30
2022-08-19T08:33:49.245Z,20.30
2022-08-19T08:36:18.373Z,20.30
2022-08-19T08:38:48.430Z,20.40
2022-08-19T08:41:22.354Z,20.30
2022-08-19T08:43:53.202Z,20.30
2022-08-19T08:46:31.041Z,20.30
2022-08-19T08:49:04.826Z,20.20
2022-08-19T08:51:36.135Z,20.30
2022-08-19T08:54:07.843Z,20.30
2022-08-19T08:56:40.293Z,20.30
2022-08-19T08:59:11.176Z,20.20
2022-08-19T09:01:39.955Z,20.30
2022-08-19T09:04:09.142Z,20.40
2022-08-19T09:06:41.020Z,20.40
2022-08-19T09:09:16.756Z,20.30
2022-08-19T09:11:50.144Z,20.30
2022-08-19T09:14:47.439Z,20.20
2022-08-19T09:17:12.043Z,20.30
2022-08-19T09:19:49.436Z,20.30
2022-08-19T09:22:25.300Z,20.30
2022-08-19T09:24:55.911Z,20.40
2022-08-19T09:27:43.047Z,20.30
2022-08-19T09:30:17.206Z,20.40
2022-08-19T09:32:46.543Z,20.50
2022-08-19T09:35:15.321Z,20.60
2022-08-19T09:37:43.822Z,20.60
2022-08-19T09:40:15.501Z,20.60
2022-08-19T09:42:50.379Z,20.70
2022-08-19T09:45:23.246Z,20.60
2022-08-19T09:47:53.873Z,20.60
2022-08-19T09:50:23.771Z,20.80
2022-08-19T09:52:55.303Z,20.90
2022-08-19T09:55:31.580Z,20.80
2022-08-19T09:58:03.831Z,20.80
2022-08-19T10:00:33.125Z,20.80
2022-08-19T10:03:01.408Z,20.70
2022-08-19T10:05:49.222Z,20.70
2022-08-19T10:08:18.482Z,20.70
2022-08-19T10:10:51.720Z,20.60
2022-08-19T10:13:23.051Z,20.70
2022-08-19T10:15:52.452Z,20.90
2022-08-19T10:18:22.010Z,21.10
2022-08-19T10:20:51.594Z,21.00
2022-08-19T10:23:21.097Z,21.10
2022-08-19T10:25:54.454Z,21.30
2022-08-19T10:28:24.190Z,21.50
2022-08-19T10:30:52.790Z,21.50
2022-08-19T10:33:38.244Z,21.60
2022-08-19T10:36:11.050Z,21.60
2022-08-19T10:38:39.481Z,21.60
2022-08-19T10:41:23.512Z,21.50
2022-08-19T10:43:55.536Z,21.50
2022-08-19T10:46:24.522Z,21.40
2022-08-19T10:48:54.209Z,21.20
2022-08-19T10:51:45.823Z,21.20
2022-08-19T10:54:16.521Z,21.20
2022-08-19T10:56:56.720Z,21.20
2022-08-19T10:59:31.427Z,21.30
2022-08-19T11:02:03.081Z,21.30
2022-08-19T11:04:33.051Z,21.40
2022-08-19T11:07:01.371Z,21.50
2022-08-19T11:09:34.047Z,21.50
2022-08-19T11:12:04.808Z,21.50
2022-08-19T11:14:34.506Z,21.40
2022-08-19T11:17:03.181Z,21.20
2022-08-19T11:19:32.624Z,21.00
2022-08-19T11:22:03.971Z,21.00
2022-08-19T11:24:32.837Z,21.20
2022-08-19T11:27:05.620Z,21.20
2022-08-19T11:29:36.094Z,21.30
2022-08-19T11:32:06.245Z,21.20
2022-08-19T11:34:36.495Z,21.40
2022-08-19T11:37:05.297Z,21.40
2022-08-19T11:39:34.930Z,21.40
2022-08-19T11:42:25.575Z,21.70
2022-08-19T11:44:54.345Z,21.60
2022-08-19T11:47:23.464Z,21.60
2022-08-19T11:49:52.856Z,21.70
2022-08-19T11:52:21.423Z,21.70
2022-08-19T11:54:49.865Z,21.80
2022-08-19T11:57:20.876Z,21.90
2022-08-19T11:59:52.733Z,22.00
2022-08-19T12:02:21.343Z,22.00
2022-08-19T12:04:52.323Z,22.00
2022-08-19T12:07:20.622Z,22.00
2022-08-19T12:10:07.444Z,22.10
2022-08-19T12:12:41.555Z,22.30
2022-08-19T12:15:13.107Z,22.40
2022-08-19T12:17:41.428Z,22.40
2022-08-19T12:20:11.583Z,22.30
2022-08-19T12:22:40.484Z,22.20
2022-08-19T12:25:10.123Z,22.50
2022-08-19T12:27:41.686Z,22.90
2022-08-19T12:30:13.883Z,23.30
2022-08-19T12:32:42.503Z,23.40
2022-08-19T12:35:12.512Z,23.20
2022-08-19T12:37:43.445Z,23.10
2022-08-19T12:40:12.969Z,22.90
2022-08-19T12:42:43.331Z,23.00
2022-08-19T12:45:12.480Z,23.00
2022-08-19T12:47:41.358Z,23.00
2022-08-19T12:50:13.797Z,23.20
2022-08-19T12:52:43.502Z,23.30
2022-08-19T12:55:12.708Z,23.50
2022-08-19T12:57:43.910Z,23.60
2022-08-19T13:00:14.670Z,23.60
2022-08-19T13:02:45.388Z,23.50
2022-08-19T13:05:14.775Z,23.50
2022-08-19T13:07:45.038Z,23.50
2022-08-19T13:10:16.484Z,23.30
2022-08-19T13:12:46.636Z,23.50
2022-08-19T13:15:15.357Z,23.60
2022-08-19T13:17:43.736Z,23.40
2022-08-19T13:20:12.852Z,23.20
2022-08-19T13:22:41.177Z,23.20
2022-08-19T13:25:10.005Z,23.30
2022-08-19T13:27:38.948Z,23.30
2022-08-19T13:30:27.668Z,23.30
2022-08-19T13:33:16.272Z,23.10
2022-08-19T13:35:47.266Z,22.90
2022-08-19T13:38:16.501Z,22.80
2022-08-19T13:40:44.838Z,22.80
2022-08-19T13:43:17.590Z,22.70
2022-08-19T13:45:57.425Z,22.60
2022-08-19T13:48:27.507Z,22.50
2022-08-19T13:50:57.573Z,22.70
2022-08-19T13:53:26.003Z,22.80
2022-08-19T13:55:55.791Z,22.70
2022-08-19T13:58:25.421Z,22.60
2022-08-19T14:00:56.410Z,22.50
2022-08-19T14:03:25.082Z,22.40
2022-08-19T14:05:53.522Z,22.40
2022-08-19T14:08:21.992Z,22.40
2022-08-19T14:10:50.429Z,22.50
2022-08-19T14:13:21.053Z,22.80
2022-08-19T14:15:49.737Z,22.70
2022-08-19T14:18:20.166Z,22.70
2022-08-19T14:20:48.449Z,22.70
2022-08-19T14:23:18.828Z,22.70
2022-08-19T14:25:47.689Z,22.70
2022-08-19T14:28:18.127Z,22.70
2022-08-19T14:30:46.506Z,22.70
2022-08-19T14:33:15.785Z,22.80
2022-08-19T14:35:46.793Z,22.80
2022-08-19T14:38:18.461Z,22.70
2022-08-19T14:40:52.262Z,22.80
2022-08-19T14:43:23.813Z,22.90
2022-08-19T14:45:52.396Z,22.80
2022-08-19T14:48:22.703Z,22.80
2022-08-19T14:50:59.240Z,22.70
2022-08-19T14:53:28.084Z,22.70
2022-08-19T14:55:56.404Z,22.60
2022-08-19T14:58:29.783Z,22.60
2022-08-19T15:00:59.642Z,22.50
2022-08-19T15:03:28.507Z,22.60
2022-08-19T15:05:59.049Z,22.60
2022-08-19T15:08:28.018Z,22.60
2022-08-19T15:10:57.125Z,22.60
2022-08-19T15:13:26.123Z,22.70
2022-08-19T15:15:54.533Z,22.70
2022-08-19T15:18:22.888Z,22.60
2022-08-19T15:20:51.479Z,22.50
2022-08-19T15:23:22.009Z,22.50
2022-08-19T15:25:56.533Z,22.50
2022-08-19T15:28:25.559Z,22.50
2022-08-19T15:30:54.352Z,22.40
2022-08-19T15:33:23.791Z,22.30
2022-08-19T15:35:52.779Z,22.20
2022-08-19T15:38:24.650Z,22.20
2022-08-19T15:40:53.739Z,22.20
2022-08-19T15:43:23.120Z,22.30
2022-08-19T15:45:51.522Z,22.30
2022-08-19T15:48:19.901Z,22.20
2022-08-19T15:50:48.300Z,22.10
2022-08-19T15:53:17.548Z,22.10
2022-08-19T15:55:49.239Z,22.20
2022-08-19T15:58:35.578Z,22.20
2022-08-19T16:01:23.543Z,22.20
2022-08-19T16:04:13.889Z,22.30
2022-08-19T16:06:43.700Z,22.30
2022-08-19T16:09:13.268Z,22.40
2022-08-19T16:11:45.869Z,22.30
2022-08-19T16:14:15.659Z,22.20
2022-08-19T16:16:47.338Z,22.20
2022-08-19T16:19:16.986Z,22.20
2022-08-19T16:21:46.127Z,22.20
2022-08-19T16:24:15.524Z,22.10
2022-08-19T16:26:46.447Z,22.10
2022-08-19T16:29:15.135Z,22.10
2022-08-19T16:31:57.927Z,22.10
2022-08-19T16:34:26.253Z,22.10
2022-08-19T16:36:55.415Z,22.10
2022-08-19T16:39:23.902Z,22.00
2022-08-19T16:41:53.952Z,22.10
2022-08-19T16:44:22.354Z,22.10
2022-08-19T16:46:58.587Z,22.00
2022-08-19T16:49:54.329Z,22.10
2022-08-19T16:52:16.496Z,22.10
2022-08-19T16:54:45.227Z,22.10
2022-08-19T16:57:15.217Z,22.20
2022-08-19T16:59:48.791Z,22.10
2022-08-19T17:02:19.071Z,22.10
2022-08-19T17:04:57.086Z,22.00
2022-08-19T17:07:27.093Z,21.90
2022-08-19T17:09:55.537Z,21.80
2022-08-19T17:12:30.811Z,21.70
2022-08-19T17:15:00.628Z,21.70
2022-08-19T17:17:29.656Z,21.80
2022-08-19T17:19:59.277Z,21.80
2022-08-19T17:22:28.151Z,21.80
2022-08-19T17:24:58.248Z,21.70
2022-08-19T17:27:31.493Z,21.60
2022-08-19T17:30:02.761Z,21.60
2022-08-19T17:32:34.482Z,21.60
2022-08-19T17:35:04.869Z,21.50
2022-08-19T17:37:34.327Z,21.60
2022-08-19T17:40:03.147Z,21.60
2022-08-19T17:42:32.986Z,21.60
2022-08-19T17:45:01.350Z,21.70
2022-08-19T17:47:30.271Z,21.70
2022-08-19T17:49:58.771Z,21.70
2022-08-19T17:52:27.142Z,21.70
2022-08-19T17:54:55.430Z,21.70
2022-08-19T17:57:23.781Z,21.70
2022-08-19T17:59:53.532Z,21.70
2022-08-19T18:02:22.459Z,21.70
2022-08-19T18:04:50.865Z,21.70
2022-08-19T18:07:19.670Z,21.60
2022-08-19T18:09:51.757Z,21.70
2022-08-19T18:12:23.513Z,21.60
2022-08-19T18:14:52.001Z,21.60
2022-08-19T18:17:23.516Z,21.50
2022-08-19T18:19:52.251Z,21.40
2022-08-19T18:22:24.575Z,21.40
2022-08-19T18:24:52.941Z,21.40
2022-08-19T18:27:21.380Z,21.50
2022-08-19T18:29:49.911Z,21.40
2022-08-19T18:32:23.826Z,21.40
2022-08-19T18:34:54.870Z,21.50
2022-08-19T18:37:23.341Z,21.50
2022-08-19T18:40:09.422Z,21.40
2022-08-19T18:42:55.330Z,21.40
2022-08-19T18:45:43.524Z,21.40
2022-08-19T18:48:29.831Z,21.30
2022-08-19T18:51:00.430Z,21.40
2022-08-19T18:53:31.453Z,21.40
2022-08-19T18:55:59.970Z,21.30
2022-08-19T18:58:34.949Z,21.40
2022-08-19T19:01:11.188Z,21.40
2022-08-19T19:03:41.923Z,21.40
2022-08-19T19:06:11.672Z,21.40
2022-08-19T19:08:41.094Z,21.40
2022-08-19T19:11:09.756Z,21.40
2022-08-19T19:13:38.760Z,21.40
2022-08-19T19:16:09.801Z,21.40
2022-08-19T19:18:38.052Z,21.40
2022-08-19T19:21:06.461Z,21.50
2022-08-19T19:23:40.747Z,21.50
2022-08-19T19:26:11.064Z,21.50
2022-08-19T19:28:43.611Z,21.50
2022-08-19T19:31:13.820Z,21.40
2022-08-19T19:33:42.211Z,21.40
2022-08-19T19:36:10.601Z,21.30
2022-08-19T19:38:47.704Z,21.30
2022-08-19T19:41:18.192Z,21.30
2022-08-19T19:43:46.442Z,21.30
2022-08-19T19:46:16.612Z,21.30
2022-08-19T19:48:45.051Z,21.20
2022-08-19T19:51:13.432Z,21.20
2022-08-19T19:53:43.472Z,21.10
2022-08-19T19:56:13.231Z,21.10
2022-08-19T19:58:41.861Z,21.20
2022-08-19T20:01:13.041Z,21.10
2022-08-19T20:03:49.941Z,21.00
2022-08-19T20:06:19.214Z,21.00
2022-08-19T20:09:06.437Z,21.00
2022-08-19T20:11:35.481Z,21.00
2022-08-19T20:14:05.051Z,21.10
2022-08-19T20:16:33.715Z,21.10
2022-08-19T20:19:03.296Z,21.10
2022-08-19T20:21:35.394Z,21.10
2022-08-19T20:24:08.759Z,21.10
2022-08-19T20:26:38.581Z,21.10
2022-08-19T20:29:13.727Z,21.10
2022-08-19T20:31:59.043Z,21.10
2022-08-19T20:34:28.383Z,21.10
2022-08-19T20:36:56.842Z,21.10
2022-08-19T20:39:26.771Z,21.10
2022-08-19T20:41:56.647Z,21.00
2022-08-19T20:44:26.061Z,21.10
2022-08-19T20:46:56.779Z,21.00
2022-08-19T20:49:27.638Z,20.90
2022-08-19T20:51:56.651Z,20.80
2022-08-19T20:54:27.611Z,20.80
2022-08-19T20:56:57.064Z,20.80
2022-08-19T20:59:26.422Z,20.80
2022-08-19T21:01:54.964Z,20.80
2022-08-19T21:04:23.863Z,20.70
2022-08-19T21:06:52.177Z,20.70
2022-08-19T21:09:20.581Z,20.70
2022-08-19T21:11:50.382Z,20.70
2022-08-19T21:14:19.270Z,20.70
2022-08-19T21:16:47.822Z,20.80
2022-08-19T21:19:20.864Z,20.80
2022-08-19T21:21:51.792Z,20.80
2022-08-19T21:24:20.061Z,20.90
2022-08-19T21:26:51.321Z,20.90
2022-08-19T21:29:21.386Z,21.00
2022-08-19T21:31:50.404Z,20.90
2022-08-19T21:34:18.901Z,20.90
2022-08-19T21:36:47.330Z,20.90
2022-08-19T21:39:15.706Z,21.00
2022-08-19T21:41:44.021Z,20.90
2022-08-19T21:44:12.481Z,20.90
2022-08-19T21:46:42.335Z,20.90
2022-08-19T21:49:10.711Z,20.90
2022-08-19T21:51:39.002Z,20.90
2022-08-19T21:54:07.301Z,20.90
2022-08-19T21:56:42.533Z,20.90
2022-08-19T21:59:10.824Z,20.80
2022-08-19T22:01:39.122Z,20.80
2022-08-19T22:04:08.891Z,20.80
2022-08-19T22:06:37.192Z,20.80
2022-08-19T22:09:06.471Z,20.70
2022-08-19T22:11:35.172Z,20.70
2022-08-19T22:14:04.298Z,20.70
2022-08-19T22:16:32.781Z,20.60
2022-08-19T22:19:01.121Z,20.70
2022-08-19T22:21:40.438Z,20.70
2022-08-19T22:24:10.011Z,20.60
2022-08-19T22:26:38.425Z,20.50
2022-08-19T22:29:07.180Z,20.40
2022-08-19T22:31:36.071Z,20.40
2022-08-19T22:34:05.461Z,20.40
2022-08-19T22:36:35.843Z,20.30
2022-08-19T22:39:04.821Z,20.20
2022-08-19T22:41:33.741Z,20.20
2022-08-19T22:44:02.271Z,20.30
2022-08-19T22:46:34.343Z,20.30
2022-08-19T22:49:02.715Z,20.20
2022-08-19T22:51:48.431Z,20.20
2022-08-19T22:54:18.291Z,20.30
2022-08-19T22:56:46.630Z,20.30
2022-08-19T22:59:16.971Z,20.30
2022-08-19T23:01:46.501Z,20.30
2022-08-19T23:04:14.753Z,20.30
2022-08-19T23:06:43.061Z,20.30
2022-08-19T23:09:17.002Z,20.30
2022-08-19T23:11:47.454Z,20.30
2022-08-19T23:14:17.163Z,20.20
2022-08-19T23:16:50.775Z,20.10
2022-08-19T23:19:19.662Z,20.10
2022-08-19T23:21:47.970Z,20.00
2022-08-19T23:24:16.371Z,20.00
2022-08-19T23:27:01.100Z,20.00
2022-08-19T23:29:47.355Z,20.00
2022-08-19T23:32:17.188Z,20.00
2022-08-19T23:34:45.693Z,20.00
2022-08-19T23:37:14.300Z,20.00
2022-08-19T23:39:42.714Z,20.00
2022-08-19T23:42:14.570Z,20.00
2022-08-19T23:44:52.333Z,20.00
2022-08-19T23:47:22.157Z,20.00
2022-08-19T23:49:50.878Z,19.90
2022-08-19T23:52:19.140Z,19.90
2022-08-19T23:54:47.623Z,19.80
2022-08-19T23:57:17.461Z,19.70
2022-08-19T23:59:46.434Z,19.70
